sensor_id;sensor_type;location;lat;lon;timestamp;pressure;altitude;pressure_sealevel;temperature;humidity
10127;BME280;13080;42.608;23.362;2023-04-22T00:02:02;152645.09;;;6.10;89.63
10127;BME280;13080;42.608;23.362;2023-04-22T00:04:29;152643.75;;;6.10;90.14
10127;BME280;13080;42.608;23.362;2023-04-22T00:06:55;152636.00;;;6.07;89.84
10127;BME280;13080;42.608;23.362;2023-04-22T00:09:24;152632.13;;;6.05;90.10
10127;BME280;13080;42.608;23.362;2023-04-22T00:11:51;152628.25;;;6.03;90.45
10127;BME280;13080;42.608;23.362;2023-04-22T00:14:17;152629.53;;;6.04;90.74
10127;BME280;13080;42.608;23.362;2023-04-22T00:16:44;152617.91;;;5.99;90.95
10127;BME280;13080;42.608;23.362;2023-04-22T00:19:11;152604.97;;;5.94;91.14
10127;BME280;13080;42.608;23.362;2023-04-22T00:21:38;152595.84;;;5.91;90.99
10127;BME280;13080;42.608;23.362;2023-04-22T00:24:05;152582.91;;;5.86;92.34
10127;BME280;13080;42.608;23.362;2023-04-22T00:26:33;152589.38;;;5.88;91.41
10127;BME280;13080;42.608;23.362;2023-04-22T00:29:00;152576.47;;;5.83;91.89
10127;BME280;13080;42.608;23.362;2023-04-22T00:31:26;152573.84;;;5.82;92.21
10127;BME280;13080;42.608;23.362;2023-04-22T00:33:53;152557.03;;;5.75;92.23
10127;BME280;13080;42.608;23.362;2023-04-22T00:36:20;152559.63;;;5.76;92.68
10127;BME280;13080;42.608;23.362;2023-04-22T00:38:48;152550.56;;;5.73;92.26
10127;BME280;13080;42.608;23.362;2023-04-22T00:41:16;152540.19;;;5.69;93.40
10127;BME280;13080;42.608;23.362;2023-04-22T00:43:44;152533.72;;;5.66;92.89
10127;BME280;13080;42.608;23.362;2023-04-22T00:46:11;152528.56;;;5.64;92.97
10127;BME280;13080;42.608;23.362;2023-04-22T00:48:38;152526.00;;;5.63;93.42
10127;BME280;13080;42.608;23.362;2023-04-22T00:51:05;152528.56;;;5.64;92.72
10127;BME280;13080;42.608;23.362;2023-04-22T00:53:32;152529.84;;;5.65;92.97
10127;BME280;13080;42.608;23.362;2023-04-22T00:55:58;152532.44;;;5.66;92.83
10127;BME280;13080;42.608;23.362;2023-04-22T00:58:27;152524.66;;;5.62;93.63
10127;BME280;13080;42.608;23.362;2023-04-22T01:00:56;152522.09;;;5.61;94.88
10127;BME280;13080;42.608;23.362;2023-04-22T01:03:22;152526.00;;;5.63;94.68
10127;BME280;13080;42.608;23.362;2023-04-22T01:05:51;152515.63;;;5.59;95.06
10127;BME280;13080;42.608;23.362;2023-04-22T01:08:18;152509.16;;;5.56;94.72
10127;BME280;13080;42.608;23.362;2023-04-22T01:10:45;152510.44;;;5.57;94.05
10127;BME280;13080;42.608;23.362;2023-04-22T01:13:12;152505.28;;;5.55;93.83
10127;BME280;13080;42.608;23.362;2023-04-22T01:15:38;152510.44;;;5.57;93.82
10127;BME280;13080;42.608;23.362;2023-04-22T01:18:07;152538.91;;;5.68;93.53
10127;BME280;13080;42.608;23.362;2023-04-22T01:20:34;152553.13;;;5.74;93.20
10127;BME280;13080;42.608;23.362;2023-04-22T01:23:02;152554.47;;;5.74;93.28
10127;BME280;13080;42.608;23.362;2023-04-22T01:25:31;152537.63;;;5.68;94.00
10127;BME280;13080;42.608;23.362;2023-04-22T01:27:58;152522.09;;;5.61;93.39
10127;BME280;13080;42.608;23.362;2023-04-22T01:30:25;152510.44;;;5.57;93.43
10127;BME280;13080;42.608;23.362;2023-04-22T01:32:52;152493.63;;;5.50;93.92
10127;BME280;13080;42.608;23.362;2023-04-22T01:35:18;152479.38;;;5.45;94.38
10127;BME280;13080;42.608;23.362;2023-04-22T01:37:45;152466.47;;;5.39;94.43
10127;BME280;13080;42.608;23.362;2023-04-22T01:40:12;152452.25;;;5.34;94.77
10127;BME280;13080;42.608;23.362;2023-04-22T01:42:45;152434.09;;;5.27;95.05
10127;BME280;13080;42.608;23.362;2023-04-22T01:45:12;152412.16;;;5.18;95.39
10127;BME280;13080;42.608;23.362;2023-04-22T01:47:41;152400.47;;;5.13;95.83
10127;BME280;13080;42.608;23.362;2023-04-22T01:50:09;152395.34;;;5.11;96.20
10127;BME280;13080;42.608;23.362;2023-04-22T01:52:35;152381.09;;;5.06;97.36
10127;BME280;13080;42.608;23.362;2023-04-22T01:55:02;152373.34;;;5.03;97.21
10127;BME280;13080;42.608;23.362;2023-04-22T01:57:30;152377.19;;;5.04;97.46
10127;BME280;13080;42.608;23.362;2023-04-22T01:59:58;152377.19;;;5.04;97.49
10127;BME280;13080;42.608;23.362;2023-04-22T02:02:25;152381.09;;;5.06;97.43
10127;BME280;13080;42.608;23.362;2023-04-22T02:04:52;152390.16;;;5.09;97.99
10127;BME280;13080;42.608;23.362;2023-04-22T02:07:18;152378.53;;;5.05;97.71
10127;BME280;13080;42.608;23.362;2023-04-22T02:09:45;152394.00;;;5.11;97.90
10127;BME280;13080;42.608;23.362;2023-04-22T02:12:12;152396.63;;;5.12;98.15
10127;BME280;13080;42.608;23.362;2023-04-22T02:14:38;152404.38;;;5.15;98.36
10127;BME280;13080;42.608;23.362;2023-04-22T02:17:07;152403.09;;;5.14;98.40
10127;BME280;13080;42.608;23.362;2023-04-22T02:19:34;152428.97;;;5.25;97.33
10127;BME280;13080;42.608;23.362;2023-04-22T02:22:00;152447.06;;;5.32;96.58
10127;BME280;13080;42.608;23.362;2023-04-22T02:24:27;152460.00;;;5.37;96.56
10127;BME280;13080;42.608;23.362;2023-04-22T02:26:54;152484.56;;;5.47;95.94
10127;BME280;13080;42.608;23.362;2023-04-22T02:29:21;152500.09;;;5.53;95.91
10127;BME280;13080;42.608;23.362;2023-04-22T02:31:48;152509.16;;;5.56;95.30
10127;BME280;13080;42.608;23.362;2023-04-22T02:34:16;152515.63;;;5.59;95.79
10127;BME280;13080;42.608;23.362;2023-04-22T02:36:43;152520.81;;;5.61;96.42
10127;BME280;13080;42.608;23.362;2023-04-22T02:39:10;152524.66;;;5.62;95.99
10127;BME280;13080;42.608;23.362;2023-04-22T02:41:37;152515.63;;;5.59;96.92
10127;BME280;13080;42.608;23.362;2023-04-22T02:44:04;152528.56;;;5.64;96.27
10127;BME280;13080;42.608;23.362;2023-04-22T02:46:31;152511.72;;;5.57;96.31
10127;BME280;13080;42.608;23.362;2023-04-22T02:48:58;152496.19;;;5.51;97.01
10127;BME280;13080;42.608;23.362;2023-04-22T02:51:26;152487.16;;;5.48;97.56
10127;BME280;13080;42.608;23.362;2023-04-22T02:53:53;152476.81;;;5.44;98.44
10127;BME280;13080;42.608;23.362;2023-04-22T02:56:20;152470.34;;;5.41;99.51
10127;BME280;13080;42.608;23.362;2023-04-22T02:58:46;152470.34;;;5.41;99.67
10127;BME280;13080;42.608;23.362;2023-04-22T03:01:13;152461.28;;;5.37;100.00
10127;BME280;13080;42.608;23.362;2023-04-22T03:03:40;152457.44;;;5.36;100.00
10127;BME280;13080;42.608;23.362;2023-04-22T03:06:07;152447.06;;;5.32;100.00
10127;BME280;13080;42.608;23.362;2023-04-22T03:08:35;152438.00;;;5.28;100.00
10127;BME280;13080;42.608;23.362;2023-04-22T03:11:02;152427.66;;;5.24;100.00
10127;BME280;13080;42.608;23.362;2023-04-22T03:13:28;152426.38;;;5.24;100.00
10127;BME280;13080;42.608;23.362;2023-04-22T03:15:55;152421.19;;;5.21;100.00
10127;BME280;13080;42.608;23.362;2023-04-22T03:18:22;152413.44;;;5.18;100.00
10127;BME280;13080;42.608;23.362;2023-04-22T03:20:49;152403.09;;;5.14;100.00
10127;BME280;13080;42.608;23.362;2023-04-22T03:23:15;152396.63;;;5.12;100.00
10127;BME280;13080;42.608;23.362;2023-04-22T03:25:43;152381.09;;;5.06;100.00
10127;BME280;13080;42.608;23.362;2023-04-22T03:28:10;152381.09;;;5.06;100.00
10127;BME280;13080;42.608;23.362;2023-04-22T03:30:37;152373.34;;;5.03;100.00
10127;BME280;13080;42.608;23.362;2023-04-22T03:33:04;152361.72;;;4.98;100.00
10127;BME280;13080;42.608;23.362;2023-04-22T03:35:30;152346.19;;;4.92;100.00
10127;BME280;13080;42.608;23.362;2023-04-22T03:37:57;152353.94;;;4.95;100.00
10127;BME280;13080;42.608;23.362;2023-04-22T03:40:24;152348.75;;;4.93;100.00
10127;BME280;13080;42.608;23.362;2023-04-22T03:42:52;152339.75;;;4.89;100.00
10127;BME280;13080;42.608;23.362;2023-04-22T03:45:19;152339.75;;;4.89;100.00
10127;BME280;13080;42.608;23.362;2023-04-22T03:47:45;152334.56;;;4.87;100.00
10127;BME280;13080;42.608;23.362;2023-04-22T03:50:12;152330.66;;;4.86;100.00
10127;BME280;13080;42.608;23.362;2023-04-22T03:52:39;152319.03;;;4.81;100.00
10127;BME280;13080;42.608;23.362;2023-04-22T03:55:06;152322.94;;;4.83;100.00
10127;BME280;13080;42.608;23.362;2023-04-22T03:57:33;152328.09;;;4.85;100.00
10127;BME280;13080;42.608;23.362;2023-04-22T04:00:02;152346.19;;;4.92;100.00
10127;BME280;13080;42.608;23.362;2023-04-22T04:02:29;152342.31;;;4.90;100.00
10127;BME280;13080;42.608;23.362;2023-04-22T04:04:55;152343.59;;;4.91;100.00
10127;BME280;13080;42.608;23.362;2023-04-22T04:07:22;152352.66;;;4.94;100.00
10127;BME280;13080;42.608;23.362;2023-04-22T04:09:49;152370.75;;;5.02;100.00
10127;BME280;13080;42.608;23.362;2023-04-22T04:12:16;152375.91;;;5.04;100.00
10127;BME280;13080;42.608;23.362;2023-04-22T04:14:43;152395.34;;;5.11;100.00
10127;BME280;13080;42.608;23.362;2023-04-22T04:17:11;152417.28;;;5.20;100.00
10127;BME280;13080;42.608;23.362;2023-04-22T04:19:38;152443.19;;;5.30;100.00
10127;BME280;13080;42.608;23.362;2023-04-22T04:22:05;152466.47;;;5.39;100.00
10127;BME280;13080;42.608;23.362;2023-04-22T04:24:32;152493.63;;;5.50;100.00
10127;BME280;13080;42.608;23.362;2023-04-22T04:27:00;152516.91;;;5.59;100.00
10127;BME280;13080;42.608;23.362;2023-04-22T04:29:27;152532.44;;;5.66;100.00
10127;BME280;13080;42.608;23.362;2023-04-22T04:31:54;152563.47;;;5.78;100.00
10127;BME280;13080;42.608;23.362;2023-04-22T04:34:22;152571.28;;;5.81;100.00
10127;BME280;13080;42.608;23.362;2023-04-22T04:36:49;152591.94;;;5.89;100.00
10127;BME280;13080;42.608;23.362;2023-04-22T04:39:16;152616.63;;;5.99;99.81
10127;BME280;13080;42.608;23.362;2023-04-22T04:41:43;152643.75;;;6.10;99.27
10127;BME280;13080;42.608;23.362;2023-04-22T04:44:10;152672.22;;;6.21;98.85
10127;BME280;13080;42.608;23.362;2023-04-22T04:46:37;152694.25;;;6.30;99.70
10127;BME280;13080;42.608;23.362;2023-04-22T04:49:04;152731.81;;;6.44;99.67
10127;BME280;13080;42.608;23.362;2023-04-22T04:51:32;152757.72;;;6.55;98.97
10127;BME280;13080;42.608;23.362;2023-04-22T04:53:58;152781.00;;;6.64;98.44
10127;BME280;13080;42.608;23.362;2023-04-22T04:56:25;152793.94;;;6.69;99.38
10127;BME280;13080;42.608;23.362;2023-04-22T04:58:52;152808.16;;;6.75;99.15
10127;BME280;13080;42.608;23.362;2023-04-22T05:01:18;152836.66;;;6.86;98.40
10127;BME280;13080;42.608;23.362;2023-04-22T05:03:45;152845.75;;;6.90;98.34
10127;BME280;13080;42.608;23.362;2023-04-22T05:06:12;152828.91;;;6.83;98.58
10127;BME280;13080;42.608;23.362;2023-04-22T05:08:40;152856.13;;;6.94;98.71
10127;BME280;13080;42.608;23.362;2023-04-22T05:11:07;152866.47;;;6.98;98.53
10127;BME280;13080;42.608;23.362;2023-04-22T05:13:33;152906.63;;;7.14;98.34
10127;BME280;13080;42.608;23.362;2023-04-22T05:16:00;152949.34;;;7.31;97.41
10127;BME280;13080;42.608;23.362;2023-04-22T05:18:27;152985.66;;;7.45;96.72
10127;BME280;13080;42.608;23.362;2023-04-22T05:20:54;153034.88;;;7.64;95.23
10127;BME280;13080;42.608;23.362;2023-04-22T05:23:23;153072.47;;;7.79;93.98
10127;BME280;13080;42.608;23.362;2023-04-22T05:25:51;153094.50;;;7.88;92.02
10127;BME280;13080;42.608;23.362;2023-04-22T05:28:18;153107.47;;;7.93;91.77
10127;BME280;13080;42.608;23.362;2023-04-22T05:30:44;153123.03;;;7.99;91.51
10127;BME280;13080;42.608;23.362;2023-04-22T05:33:11;153126.91;;;8.01;91.42
10127;BME280;13080;42.608;23.362;2023-04-22T05:35:38;153165.81;;;8.16;89.18
10127;BME280;13080;42.608;23.362;2023-04-22T05:38:05;153160.63;;;8.14;88.99
10127;BME280;13080;42.608;23.362;2023-04-22T05:40:31;153177.50;;;8.21;89.23
10127;BME280;13080;42.608;23.362;2023-04-22T05:43:00;153191.72;;;8.26;89.75
10127;BME280;13080;42.608;23.362;2023-04-22T05:45:26;153206.00;;;8.32;89.15
10127;BME280;13080;42.608;23.362;2023-04-22T05:47:53;153239.78;;;8.45;87.70
10127;BME280;13080;42.608;23.362;2023-04-22T05:50:20;153282.53;;;8.62;87.33
10127;BME280;13080;42.608;23.362;2023-04-22T05:52:47;153283.81;;;8.63;86.49
10127;BME280;13080;42.608;23.362;2023-04-22T05:55:13;153273.44;;;8.59;86.51
10127;BME280;13080;42.608;23.362;2023-04-22T05:57:40;153290.31;;;8.65;86.61
10127;BME280;13080;42.608;23.362;2023-04-22T06:00:09;153302.03;;;8.70;88.52
10127;BME280;13080;42.608;23.362;2023-04-22T06:02:36;153305.88;;;8.71;88.37
10127;BME280;13080;42.608;23.362;2023-04-22T06:05:04;153325.34;;;8.79;85.99
10127;BME280;13080;42.608;23.362;2023-04-22T06:07:30;153324.03;;;8.79;86.36
10127;BME280;13080;42.608;23.362;2023-04-22T06:09:57;153314.97;;;8.75;86.81
10127;BME280;13080;42.608;23.362;2023-04-22T06:12:24;153265.69;;;8.56;86.59
10127;BME280;13080;42.608;23.362;2023-04-22T06:14:51;153291.63;;;8.66;87.05
10127;BME280;13080;42.608;23.362;2023-04-22T06:17:19;153299.41;;;8.69;87.58
10127;BME280;13080;42.608;23.362;2023-04-22T06:19:46;153342.22;;;8.86;86.58
10127;BME280;13080;42.608;23.362;2023-04-22T06:22:12;153361.66;;;8.93;85.19
10127;BME280;13080;42.608;23.362;2023-04-22T06:24:39;153356.47;;;8.91;84.95
10127;BME280;13080;42.608;23.362;2023-04-22T06:27:06;153346.06;;;8.87;86.14
10127;BME280;13080;42.608;23.362;2023-04-22T06:29:32;153377.22;;;9.00;84.55
10127;BME280;13080;42.608;23.362;2023-04-22T06:31:59;153430.41;;;9.21;83.82
10127;BME280;13080;42.608;23.362;2023-04-22T06:34:29;153433.03;;;9.22;82.23
10127;BME280;13080;42.608;23.362;2023-04-22T06:36:55;153455.03;;;9.30;82.31
10127;BME280;13080;42.608;23.362;2023-04-22T06:39:22;153487.50;;;9.43;81.95
10127;BME280;13080;42.608;23.362;2023-04-22T06:41:49;153495.31;;;9.46;81.73
10127;BME280;13080;42.608;23.362;2023-04-22T06:44:16;153517.34;;;9.55;82.83
10127;BME280;13080;42.608;23.362;2023-04-22T06:46:42;153548.50;;;9.67;82.10
10127;BME280;13080;42.608;23.362;2023-04-22T06:49:10;153600.41;;;9.88;80.23
10127;BME280;13080;42.608;23.362;2023-04-22T06:51:38;153648.47;;;10.07;79.34
10127;BME280;13080;42.608;23.362;2023-04-22T06:54:05;153662.72;;;10.12;78.05
10127;BME280;13080;42.608;23.362;2023-04-22T06:56:31;153666.63;;;10.14;77.27
10127;BME280;13080;42.608;23.362;2023-04-22T06:58:58;153684.81;;;10.21;77.66
10127;BME280;13080;42.608;23.362;2023-04-22T07:01:25;153713.44;;;10.32;76.87
10127;BME280;13080;42.608;23.362;2023-04-22T07:03:51;153712.13;;;10.32;77.00
10127;BME280;13080;42.608;23.362;2023-04-22T07:06:18;153752.38;;;10.48;77.52
10127;BME280;13080;42.608;23.362;2023-04-22T07:08:46;153768.00;;;10.54;76.32
10127;BME280;13080;42.608;23.362;2023-04-22T07:11:13;153788.72;;;10.62;76.93
10127;BME280;13080;42.608;23.362;2023-04-22T07:13:40;153816.03;;;10.73;74.64
10127;BME280;13080;42.608;23.362;2023-04-22T07:16:07;153858.91;;;10.90;73.06
10127;BME280;13080;42.608;23.362;2023-04-22T07:18:36;153848.50;;;10.86;74.34
10127;BME280;13080;42.608;23.362;2023-04-22T07:21:04;153830.34;;;10.78;73.20
10127;BME280;13080;42.608;23.362;2023-04-22T07:23:31;153816.03;;;10.73;73.20
10127;BME280;13080;42.608;23.362;2023-04-22T07:26:00;153855.00;;;10.88;74.39
10127;BME280;13080;42.608;23.362;2023-04-22T07:28:26;153877.09;;;10.97;72.86
10127;BME280;13080;42.608;23.362;2023-04-22T07:30:53;153877.09;;;10.97;71.54
10127;BME280;13080;42.608;23.362;2023-04-22T07:33:20;153871.88;;;10.95;72.78
10127;BME280;13080;42.608;23.362;2023-04-22T07:35:47;153895.28;;;11.04;71.38
10127;BME280;13080;42.608;23.362;2023-04-22T07:38:14;153948.53;;;11.25;71.70
10127;BME280;13080;42.608;23.362;2023-04-22T07:40:40;153932.97;;;11.19;69.93
10127;BME280;13080;42.608;23.362;2023-04-22T07:43:11;153945.94;;;11.24;71.92
10127;BME280;13080;42.608;23.362;2023-04-22T07:45:38;153977.09;;;11.36;72.13
10127;BME280;13080;42.608;23.362;2023-04-22T07:48:05;153942.03;;;11.22;70.88
10127;BME280;13080;42.608;23.362;2023-04-22T07:50:32;153988.81;;;11.41;71.57
10127;BME280;13080;42.608;23.362;2023-04-22T07:53:01;154056.41;;;11.68;70.66
10127;BME280;13080;42.608;23.362;2023-04-22T07:55:28;154036.91;;;11.60;68.86
10127;BME280;13080;42.608;23.362;2023-04-22T07:57:55;154040.84;;;11.61;70.50
10127;BME280;13080;42.608;23.362;2023-04-22T08:00:23;154064.22;;;11.71;71.32
10127;BME280;13080;42.608;23.362;2023-04-22T08:02:50;154085.00;;;11.79;68.73
10127;BME280;13080;42.608;23.362;2023-04-22T08:05:16;154099.31;;;11.84;69.24
10127;BME280;13080;42.608;23.362;2023-04-22T08:07:43;154131.88;;;11.97;70.41
10127;BME280;13080;42.608;23.362;2023-04-22T08:10:10;154147.44;;;12.03;69.37
10127;BME280;13080;42.608;23.362;2023-04-22T08:12:37;154183.88;;;12.18;69.72
10127;BME280;13080;42.608;23.362;2023-04-22T08:15:05;154218.97;;;12.32;69.16
10127;BME280;13080;42.608;23.362;2023-04-22T08:17:33;154229.41;;;12.36;67.11
10127;BME280;13080;42.608;23.362;2023-04-22T08:20:00;154285.34;;;12.58;67.88
10127;BME280;13080;42.608;23.362;2023-04-22T08:22:27;154337.34;;;12.78;66.40
10127;BME280;13080;42.608;23.362;2023-04-22T08:24:53;154329.53;;;12.75;66.38
10127;BME280;13080;42.608;23.362;2023-04-22T08:27:20;154310.03;;;12.67;65.38
10127;BME280;13080;42.608;23.362;2023-04-22T08:29:47;154324.31;;;12.73;64.89
10127;BME280;13080;42.608;23.362;2023-04-22T08:32:14;154363.34;;;12.88;64.97
10127;BME280;13080;42.608;23.362;2023-04-22T08:34:42;154377.69;;;12.94;65.17
10127;BME280;13080;42.608;23.362;2023-04-22T08:37:08;154365.97;;;12.89;63.61
10127;BME280;13080;42.608;23.362;2023-04-22T08:39:35;154401.09;;;13.03;63.31
10127;BME280;13080;42.608;23.362;2023-04-22T08:42:02;154458.34;;;13.26;63.79
10127;BME280;13080;42.608;23.362;2023-04-22T08:44:29;154444.00;;;13.20;61.67
10127;BME280;13080;42.608;23.362;2023-04-22T08:46:57;154403.69;;;13.04;62.10
10127;BME280;13080;42.608;23.362;2023-04-22T08:49:24;154427.09;;;13.14;61.46
10127;BME280;13080;42.608;23.362;2023-04-22T08:51:53;154466.19;;;13.29;61.04
10127;BME280;13080;42.608;23.362;2023-04-22T08:54:20;154505.25;;;13.44;61.57
10127;BME280;13080;42.608;23.362;2023-04-22T08:56:49;154576.84;;;13.72;60.89
10127;BME280;13080;42.608;23.362;2023-04-22T08:59:17;154610.69;;;13.86;60.68
10127;BME280;13080;42.608;23.362;2023-04-22T09:01:48;154589.84;;;13.78;59.25
10127;BME280;13080;42.608;23.362;2023-04-22T09:04:17;154490.94;;;13.39;58.42
10127;BME280;13080;42.608;23.362;2023-04-22T09:06:44;154523.44;;;13.51;60.36
10127;BME280;13080;42.608;23.362;2023-04-22T09:09:13;154617.22;;;13.88;58.32
10127;BME280;13080;42.608;23.362;2023-04-22T09:11:39;154635.44;;;13.96;58.34
10127;BME280;13080;42.608;23.362;2023-04-22T09:14:06;154651.06;;;14.02;56.57
10127;BME280;13080;42.608;23.362;2023-04-22T09:16:39;154679.72;;;14.13;57.84
10127;BME280;13080;42.608;23.362;2023-04-22T09:19:10;154649.72;;;14.01;55.41
10127;BME280;13080;42.608;23.362;2023-04-22T09:21:38;154566.44;;;13.68;57.58
10127;BME280;13080;42.608;23.362;2023-04-22T09:24:06;154613.28;;;13.87;56.11
10127;BME280;13080;42.608;23.362;2023-04-22T09:26:38;154627.63;;;13.92;57.75
10127;BME280;13080;42.608;23.362;2023-04-22T09:29:06;154690.13;;;14.17;56.01
10127;BME280;13080;42.608;23.362;2023-04-22T09:31:36;154697.94;;;14.20;55.77
10127;BME280;13080;42.608;23.362;2023-04-22T09:34:06;154752.66;;;14.42;55.63
10127;BME280;13080;42.608;23.362;2023-04-22T09:36:33;154799.56;;;14.60;54.04
10127;BME280;13080;42.608;23.362;2023-04-22T09:39:03;154766.94;;;14.47;52.90
10127;BME280;13080;42.608;23.362;2023-04-22T09:41:32;154820.38;;;14.68;56.33
10127;BME280;13080;42.608;23.362;2023-04-22T09:44:04;154877.72;;;14.91;51.53
10127;BME280;13080;42.608;23.362;2023-04-22T09:46:34;154860.81;;;14.84;47.34
10127;BME280;13080;42.608;23.362;2023-04-22T09:49:01;154894.66;;;14.97;48.99
10127;BME280;13080;42.608;23.362;2023-04-22T09:51:28;154941.59;;;15.16;48.15
10127;BME280;13080;42.608;23.362;2023-04-22T09:53:57;154954.63;;;15.21;48.29
10127;BME280;13080;42.608;23.362;2023-04-22T09:56:43;154979.34;;;15.31;48.62
10127;BME280;13080;42.608;23.362;2023-04-22T09:59:14;154992.41;;;15.36;47.15
10127;BME280;13080;42.608;23.362;2023-04-22T10:01:41;155009.38;;;15.43;45.85
10127;BME280;13080;42.608;23.362;2023-04-22T10:04:08;154925.94;;;15.10;44.83
10127;BME280;13080;42.608;23.362;2023-04-22T10:06:40;154896.00;;;14.98;43.52
10127;BME280;13080;42.608;23.362;2023-04-22T10:09:07;154905.09;;;15.02;44.53
10127;BME280;13080;42.608;23.362;2023-04-22T10:11:34;154991.09;;;15.35;44.77
10127;BME280;13080;42.608;23.362;2023-04-22T10:14:02;155000.22;;;15.39;47.13
10127;BME280;13080;42.608;23.362;2023-04-22T10:16:32;154909.00;;;15.03;50.00
10127;BME280;13080;42.608;23.362;2023-04-22T10:19:02;154871.19;;;14.88;48.45
10127;BME280;13080;42.608;23.362;2023-04-22T10:21:31;154743.50;;;14.38;50.32
10127;BME280;13080;42.608;23.362;2023-04-22T10:23:59;154660.16;;;14.05;51.78
10127;BME280;13080;42.608;23.362;2023-04-22T10:26:40;154697.94;;;14.20;50.17
10127;BME280;13080;42.608;23.362;2023-04-22T10:29:08;154684.91;;;14.15;50.01
10127;BME280;13080;42.608;23.362;2023-04-22T10:31:38;154661.50;;;14.06;51.20
10127;BME280;13080;42.608;23.362;2023-04-22T10:34:08;154661.50;;;14.06;51.44
10127;BME280;13080;42.608;23.362;2023-04-22T10:36:54;154657.56;;;14.04;52.73
10127;BME280;13080;42.608;23.362;2023-04-22T10:39:22;154660.16;;;14.05;50.32
10127;BME280;13080;42.608;23.362;2023-04-22T10:41:51;154692.72;;;14.18;49.55
10127;BME280;13080;42.608;23.362;2023-04-22T10:44:19;154720.06;;;14.29;49.55
10127;BME280;13080;42.608;23.362;2023-04-22T10:46:58;154748.72;;;14.40;49.23
10127;BME280;13080;42.608;23.362;2023-04-22T10:49:26;154720.06;;;14.29;49.55
10127;BME280;13080;42.608;23.362;2023-04-22T10:51:55;154694.00;;;14.19;49.30
10127;BME280;13080;42.608;23.362;2023-04-22T10:54:55;154682.28;;;14.14;51.01
10127;BME280;13080;42.608;23.362;2023-04-22T10:57:28;154681.00;;;14.13;48.43
10127;BME280;13080;42.608;23.362;2023-04-22T11:00:00;154697.94;;;14.20;51.66
10127;BME280;13080;42.608;23.362;2023-04-22T11:02:28;154740.88;;;14.37;49.50
10127;BME280;13080;42.608;23.362;2023-04-22T11:05:19;154743.50;;;14.38;53.09
10127;BME280;13080;42.608;23.362;2023-04-22T11:07:47;154737.00;;;14.35;50.27
10127;BME280;13080;42.608;23.362;2023-04-22T11:10:35;154789.16;;;14.56;52.87
10127;BME280;13080;42.608;23.362;2023-04-22T11:13:06;154889.47;;;14.95;50.71
10127;BME280;13080;42.608;23.362;2023-04-22T11:15:35;154896.00;;;14.98;47.32
10127;BME280;13080;42.608;23.362;2023-04-22T11:18:07;154888.13;;;14.95;47.42
10127;BME280;13080;42.608;23.362;2023-04-22T11:20:35;154901.19;;;15.00;47.69
10127;BME280;13080;42.608;23.362;2023-04-22T11:23:02;154935.09;;;15.13;48.43
10127;BME280;13080;42.608;23.362;2023-04-22T11:25:29;155001.53;;;15.39;48.04
10127;BME280;13080;42.608;23.362;2023-04-22T11:27:57;155086.31;;;15.73;46.74
10127;BME280;13080;42.608;23.362;2023-04-22T11:30:25;155113.69;;;15.84;45.98
10127;BME280;13080;42.608;23.362;2023-04-22T11:32:54;155125.44;;;15.88;43.97
10127;BME280;13080;42.608;23.362;2023-04-22T11:35:26;155138.44;;;15.93;41.48
10127;BME280;13080;42.608;23.362;2023-04-22T11:37:54;155194.53;;;16.15;43.72
10127;BME280;13080;42.608;23.362;2023-04-22T11:40:22;155151.47;;;15.98;43.14
10127;BME280;13080;42.608;23.362;2023-04-22T11:42:50;155124.13;;;15.88;43.21
10127;BME280;13080;42.608;23.362;2023-04-22T11:45:18;155018.47;;;15.46;44.32
10127;BME280;13080;42.608;23.362;2023-04-22T11:47:45;154989.78;;;15.35;45.51
10127;BME280;13080;42.608;23.362;2023-04-22T11:50:15;154916.81;;;15.06;45.46
10127;BME280;13080;42.608;23.362;2023-04-22T11:52:49;154812.59;;;14.65;46.64
10127;BME280;13080;42.608;23.362;2023-04-22T11:55:18;154796.94;;;14.59;49.59
10127;BME280;13080;42.608;23.362;2023-04-22T11:57:51;154713.56;;;14.26;47.96
10127;BME280;13080;42.608;23.362;2023-04-22T12:00:18;154664.06;;;14.07;48.73
10127;BME280;13080;42.608;23.362;2023-04-22T12:02:54;154686.22;;;14.16;50.53
10127;BME280;13080;42.608;23.362;2023-04-22T12:05:31;154717.44;;;14.28;49.16
10127;BME280;13080;42.608;23.362;2023-04-22T12:08:01;154699.22;;;14.21;49.54
10127;BME280;13080;42.608;23.362;2023-04-22T12:10:28;154600.28;;;13.82;48.12
10127;BME280;13080;42.608;23.362;2023-04-22T12:12:55;154549.50;;;13.62;48.76
10127;BME280;13080;42.608;23.362;2023-04-22T12:15:22;154496.16;;;13.41;50.35
10127;BME280;13080;42.608;23.362;2023-04-22T12:17:49;154455.72;;;13.25;51.25
10127;BME280;13080;42.608;23.362;2023-04-22T12:20:16;154536.50;;;13.57;52.89
10127;BME280;13080;42.608;23.362;2023-04-22T12:22:42;154623.72;;;13.91;51.25
10127;BME280;13080;42.608;23.362;2023-04-22T12:25:10;154619.78;;;13.89;52.44
10127;BME280;13080;42.608;23.362;2023-04-22T12:27:37;154619.78;;;13.89;51.15
10127;BME280;13080;42.608;23.362;2023-04-22T12:30:05;154582.06;;;13.75;52.41
10127;BME280;13080;42.608;23.362;2023-04-22T12:32:32;154557.28;;;13.65;53.81
10127;BME280;13080;42.608;23.362;2023-04-22T12:34:59;154565.13;;;13.68;53.89
10127;BME280;13080;42.608;23.362;2023-04-22T12:37:26;154592.44;;;13.79;53.92
10127;BME280;13080;42.608;23.362;2023-04-22T12:39:53;154634.13;;;13.95;52.87
10127;BME280;13080;42.608;23.362;2023-04-22T12:42:21;154658.84;;;14.05;51.62
10127;BME280;13080;42.608;23.362;2023-04-22T12:44:48;154569.00;;;13.69;51.25
10127;BME280;13080;42.608;23.362;2023-04-22T12:47:15;154600.28;;;13.82;49.91